Grenaa, Denmark
Current Conditions -  °F | °C
As of 5:20 PM on Wednesday 28 Jan 2015 (Local Time) from EKAH Reporting Station
Drizzle Drizzle  
Wind Chill: 31°   Ceiling: 400
Heat Index: 39°   Visibility: 3mi
Dew Point: 37°   Wind: 14mph
Humidity: 93%   Direction: 180°S
Pressure: 29.03"   Gusts: 36mph
Location:  56.42°N, 10.88°E
Report Text: EKAH 281620Z AUTO 18012G31KT 100V250 5000NDV DZ OVC004///04/03 Q0983
Loading
Personal Weather Stations






























Interactive Weather Map New forecast layout! Learn more

10-Day Weather Forecast

Advertisements
Track Severe Weather on mobile